createdAt,value
2022-11-14T00:00:45.949Z,100356.06
2022-11-14T00:03:31.805Z,100369.00
2022-11-14T00:06:17.480Z,100357.84
2022-11-14T00:09:02.939Z,100357.09
2022-11-14T00:11:48.918Z,100367.78
2022-11-14T00:14:34.607Z,100375.38
2022-11-14T00:17:20.459Z,100368.03
2022-11-14T00:20:08.029Z,100375.31
2022-11-14T00:22:53.442Z,100372.56
2022-11-14T00:25:39.405Z,100360.13
2022-11-14T00:28:25.313Z,100380.31
2022-11-14T00:31:11.615Z,100373.94
2022-11-14T00:33:57.026Z,100372.94
2022-11-14T00:36:42.361Z,100379.13
2022-11-14T00:39:27.747Z,100384.28
2022-11-14T00:42:13.088Z,100385.88
2022-11-14T00:44:58.890Z,100389.03
2022-11-14T00:47:44.578Z,100384.28
2022-11-14T00:50:30.206Z,100393.81
2022-11-14T00:53:16.142Z,100404.06
2022-11-14T00:56:01.706Z,100401.22
2022-11-14T00:58:47.012Z,100402.22
2022-11-14T01:01:32.793Z,100402.97
2022-11-14T01:04:17.806Z,100402.31
2022-11-14T01:07:03.786Z,100404.47
2022-11-14T01:09:49.212Z,100402.97
2022-11-14T01:12:35.283Z,100394.78
2022-11-14T01:15:21.007Z,100418.53
2022-11-14T01:18:06.512Z,100420.06
2022-11-14T01:20:52.122Z,100416.13
2022-11-14T01:23:37.885Z,100433.34
2022-11-14T01:26:24.013Z,100430.47
2022-11-14T01:29:09.216Z,100380.31
2022-11-14T01:31:54.428Z,100429.94
2022-11-14T01:34:40.040Z,100437.69
2022-11-14T01:37:25.673Z,100437.09
2022-11-14T01:40:12.156Z,100442.00
2022-11-14T01:43:19.272Z,100445.97
2022-11-14T01:46:06.601Z,100445.38
2022-11-14T01:49:00.196Z,100469.22
2022-11-14T01:51:50.357Z,100471.78
2022-11-14T01:54:41.560Z,100458.28
2022-11-14T01:57:38.607Z,100471.94
2022-11-14T02:00:24.355Z,100477.13
2022-11-14T02:03:14.755Z,100475.50
2022-11-14T02:06:03.065Z,100453.91
2022-11-14T02:08:51.195Z,100479.03
2022-11-14T02:11:40.981Z,100489.91
2022-11-14T02:14:28.220Z,100491.91
2022-11-14T02:17:29.099Z,100499.16
2022-11-14T02:20:38.531Z,100503.34
2022-11-14T02:23:32.396Z,100511.19
2022-11-14T02:26:19.233Z,100512.63
2022-11-14T02:29:07.427Z,100502.69
2022-11-14T02:31:53.117Z,100491.13
2022-11-14T02:34:38.969Z,100509.03
2022-11-14T02:37:24.870Z,100495.84
2022-11-14T02:40:10.972Z,100503.50
2022-11-14T02:42:56.410Z,100514.81
2022-11-14T02:45:42.141Z,100521.59
2022-11-14T02:48:28.767Z,100524.09
2022-11-14T02:51:14.520Z,100517.16
2022-11-14T02:54:00.254Z,100516.72
2022-11-14T02:56:45.900Z,100531.22
2022-11-14T02:59:30.998Z,100528.31
2022-11-14T03:02:16.140Z,100529.09
2022-11-14T03:05:01.979Z,100526.38
2022-11-14T03:07:47.186Z,100534.09
2022-11-14T03:10:32.491Z,100533.03
2022-11-14T03:13:18.010Z,100533.25
2022-11-14T03:16:08.692Z,100543.56
2022-11-14T03:18:53.753Z,100527.78
2022-11-14T03:21:39.071Z,100541.13
2022-11-14T03:24:24.778Z,100542.00
2022-11-14T03:27:10.595Z,100541.22
2022-11-14T03:29:56.075Z,100541.69
2022-11-14T03:32:41.863Z,100541.38
2022-11-14T03:35:27.763Z,100550.56
2022-11-14T03:38:13.287Z,100549.28
2022-11-14T03:41:00.183Z,100548.50
2022-11-14T03:43:45.763Z,100554.88
2022-11-14T03:46:31.047Z,100545.00
2022-11-14T03:49:16.079Z,100557.84
2022-11-14T03:52:01.515Z,100540.75
2022-11-14T03:54:47.206Z,100568.25
2022-11-14T03:57:32.517Z,100559.53
2022-11-14T04:00:18.467Z,100558.38
2022-11-14T04:03:04.974Z,100564.97
2022-11-14T04:05:50.683Z,100577.53
2022-11-14T04:08:36.179Z,100570.06
2022-11-14T04:11:22.076Z,100563.91
2022-11-14T04:14:07.785Z,100570.97
2022-11-14T04:16:52.918Z,100519.28
2022-11-14T04:19:38.138Z,100574.22
2022-11-14T04:22:23.791Z,100579.31
2022-11-14T04:25:10.184Z,100594.19
2022-11-14T04:27:55.581Z,100592.38
2022-11-14T04:30:41.730Z,100577.88
2022-11-14T04:33:27.647Z,100566.44
2022-11-14T04:36:13.073Z,100589.31
2022-11-14T04:38:58.412Z,100567.06
2022-11-14T04:41:43.971Z,100599.69
2022-11-14T04:44:29.696Z,100584.91
2022-11-14T04:47:15.076Z,100603.69
2022-11-14T04:50:00.752Z,100604.72
2022-11-14T04:52:46.403Z,100607.03
2022-11-14T04:55:32.127Z,100592.13
2022-11-14T04:58:17.672Z,100597.97
2022-11-14T05:01:10.560Z,100605.91
2022-11-14T05:03:56.252Z,100621.16
2022-11-14T05:06:42.087Z,100620.34
2022-11-14T05:09:28.859Z,100629.16
2022-11-14T05:12:14.507Z,100627.50
2022-11-14T05:15:00.735Z,100632.81
2022-11-14T05:17:46.322Z,100644.34
2022-11-14T05:20:31.739Z,100644.41
2022-11-14T05:23:22.787Z,100659.75
2022-11-14T05:26:14.590Z,100650.00
2022-11-14T05:29:00.554Z,100660.19
2022-11-14T05:31:46.105Z,100668.78
2022-11-14T05:34:31.717Z,100673.44
2022-11-14T05:37:16.972Z,100675.47
2022-11-14T05:40:02.987Z,100693.19
2022-11-14T05:42:48.478Z,100681.38
2022-11-14T05:45:33.914Z,100687.03
2022-11-14T05:48:19.317Z,100695.19
2022-11-14T05:51:06.955Z,100693.56
2022-11-14T05:53:52.184Z,100693.13
2022-11-14T05:56:37.740Z,100697.13
2022-11-14T05:59:23.644Z,100709.66
2022-11-14T06:02:09.286Z,100717.88
2022-11-14T06:04:55.044Z,100723.72
2022-11-14T06:07:40.746Z,100719.47
2022-11-14T06:10:27.075Z,100725.91
2022-11-14T06:13:12.560Z,100735.22
2022-11-14T06:16:06.694Z,100739.75
2022-11-14T06:18:55.642Z,100737.09
2022-11-14T06:21:40.973Z,100751.84
2022-11-14T06:24:26.769Z,100758.47
2022-11-14T06:27:12.182Z,100753.91
2022-11-14T06:29:57.982Z,100751.44
2022-11-14T06:32:43.634Z,100762.53
2022-11-14T06:35:29.370Z,100770.47
2022-11-14T06:38:14.731Z,100762.84
2022-11-14T06:41:13.617Z,100763.81
2022-11-14T06:43:59.056Z,100763.13
2022-11-14T06:46:44.715Z,100778.19
2022-11-14T06:49:30.554Z,100787.31
2022-11-14T06:52:16.413Z,100763.50
2022-11-14T06:55:02.778Z,100766.41
2022-11-14T06:57:53.771Z,100762.25
2022-11-14T07:00:39.779Z,100773.59
2022-11-14T07:03:25.651Z,100776.91
2022-11-14T07:06:21.503Z,100765.25
2022-11-14T07:09:07.070Z,100765.16
2022-11-14T07:11:52.366Z,100786.78
2022-11-14T07:14:38.089Z,100776.69
2022-11-14T07:17:28.431Z,100782.66
2022-11-14T07:20:18.670Z,100793.78
2022-11-14T07:23:04.530Z,100796.53
2022-11-14T07:25:49.779Z,100790.34
2022-11-14T07:28:36.463Z,100803.78
2022-11-14T07:31:22.381Z,100806.97
2022-11-14T07:34:09.158Z,100814.84
2022-11-14T07:36:55.273Z,100814.94
2022-11-14T07:39:41.094Z,100815.59
2022-11-14T07:42:29.936Z,100817.72
2022-11-14T07:45:15.790Z,100822.34
2022-11-14T07:48:02.387Z,100815.22
2022-11-14T07:50:48.062Z,100821.63
2022-11-14T07:53:34.299Z,100822.56
2022-11-14T07:56:20.366Z,100825.19
2022-11-14T07:59:05.630Z,100831.63
2022-11-14T08:01:51.107Z,100829.19
2022-11-14T08:04:36.729Z,100826.00
2022-11-14T08:07:22.489Z,100836.94
2022-11-14T08:10:09.019Z,100821.69
2022-11-14T08:13:25.205Z,100828.56
2022-11-14T08:16:12.953Z,100835.72
2022-11-14T08:18:58.837Z,100779.38
2022-11-14T08:21:44.908Z,100834.88
2022-11-14T08:24:30.504Z,100835.69
2022-11-14T08:27:16.170Z,100830.31
2022-11-14T08:30:02.173Z,100802.50
2022-11-14T08:32:47.919Z,100835.97
2022-11-14T08:35:33.645Z,100840.16
2022-11-14T08:38:19.000Z,100842.66
2022-11-14T08:41:05.178Z,100836.78
2022-11-14T08:43:50.672Z,100840.41
2022-11-14T08:46:36.611Z,100834.19
2022-11-14T08:49:22.252Z,100831.69
2022-11-14T08:52:11.223Z,100822.22
2022-11-14T08:55:00.999Z,100829.97
2022-11-14T08:57:49.573Z,100839.38
2022-11-14T09:00:34.955Z,100833.88
2022-11-14T09:03:20.817Z,100832.69
2022-11-14T09:06:06.704Z,100819.78
2022-11-14T09:08:52.571Z,100841.59
2022-11-14T09:11:38.163Z,100841.84
2022-11-14T09:14:23.627Z,100840.00
2022-11-14T09:17:09.088Z,100838.63
2022-11-14T09:19:54.723Z,100843.06
2022-11-14T09:22:40.400Z,100838.78
2022-11-14T09:25:29.334Z,100840.63
2022-11-14T09:28:14.859Z,100834.69
2022-11-14T09:31:08.115Z,100832.59
2022-11-14T09:33:53.656Z,100843.75
2022-11-14T09:36:39.367Z,100840.25
2022-11-14T09:39:24.545Z,100841.75
2022-11-14T09:42:16.950Z,100839.88
2022-11-14T09:45:07.413Z,100838.81
2022-11-14T09:47:56.415Z,100839.38
2022-11-14T09:50:51.739Z,100843.38
2022-11-14T09:53:44.180Z,100853.88
2022-11-14T09:56:29.973Z,100841.94
2022-11-14T09:59:16.112Z,100840.19
2022-11-14T10:02:14.619Z,100833.50
2022-11-14T10:05:24.913Z,100835.44
2022-11-14T10:08:23.467Z,100826.28
2022-11-14T10:11:21.881Z,100836.84
2022-11-14T10:14:47.600Z,100809.44
2022-11-14T10:18:10.180Z,100826.13
2022-11-14T10:21:02.426Z,100836.78
2022-11-14T10:24:09.812Z,100827.22
2022-11-14T10:27:03.010Z,100830.59
2022-11-14T10:30:00.655Z,100827.38
2022-11-14T10:33:04.830Z,100817.66
2022-11-14T10:36:00.690Z,100818.56
2022-11-14T10:38:56.919Z,100822.47
2022-11-14T10:41:58.077Z,100807.41
2022-11-14T10:44:58.671Z,100819.78
2022-11-14T10:47:50.037Z,100810.69
2022-11-14T10:50:48.249Z,100813.28
2022-11-14T10:54:09.778Z,100823.66
2022-11-14T10:56:55.961Z,100823.53
2022-11-14T10:59:43.258Z,100828.63
2022-11-14T11:02:51.781Z,100818.41
2022-11-14T11:05:52.281Z,100814.94
2022-11-14T11:09:02.225Z,100823.16
2022-11-14T11:12:01.606Z,100815.63
2022-11-14T11:14:49.646Z,100822.25
2022-11-14T11:17:40.092Z,100811.75
2022-11-14T11:20:39.342Z,100819.81
2022-11-14T11:23:27.601Z,100808.00
2022-11-14T11:26:17.246Z,100817.72
2022-11-14T11:29:10.254Z,100812.78
2022-11-14T11:32:00.814Z,100824.22
2022-11-14T11:34:46.061Z,100826.34
2022-11-14T11:37:57.299Z,100829.34
2022-11-14T11:40:46.394Z,100811.28
2022-11-14T11:43:45.386Z,100809.69
2022-11-14T11:46:52.467Z,100818.13
2022-11-14T11:49:44.681Z,100822.47
2022-11-14T11:52:54.879Z,100814.50
2022-11-14T11:55:44.225Z,100820.53
2022-11-14T11:58:46.259Z,100817.16
2022-11-14T12:01:31.806Z,100818.06
2022-11-14T12:04:17.866Z,100800.81
2022-11-14T12:07:19.513Z,100823.50
2022-11-14T12:10:20.467Z,100824.34
2022-11-14T12:13:05.888Z,100824.41
2022-11-14T12:16:01.085Z,100826.44
2022-11-14T12:19:17.208Z,100829.03
2022-11-14T12:22:05.515Z,100825.88
2022-11-14T12:24:53.873Z,100822.66
2022-11-14T12:28:10.971Z,100821.38
2022-11-14T12:31:01.035Z,100826.28
2022-11-14T12:34:03.111Z,100827.19
2022-11-14T12:36:48.703Z,100822.94
2022-11-14T12:39:34.179Z,100743.41
2022-11-14T12:42:21.251Z,100832.34
2022-11-14T12:45:36.093Z,100822.47
2022-11-14T12:48:27.566Z,100819.06
2022-11-14T12:51:25.529Z,100823.41
2022-11-14T12:54:43.534Z,100823.53
2022-11-14T12:57:50.128Z,100820.19
2022-11-14T13:01:01.613Z,100824.22
2022-11-14T13:03:49.741Z,100831.22
2022-11-14T13:06:35.280Z,100826.31
2022-11-14T13:09:32.441Z,100831.34
2022-11-14T13:12:49.915Z,100830.44
2022-11-14T13:16:07.448Z,100816.06
2022-11-14T13:19:34.517Z,100822.31
2022-11-14T13:22:37.249Z,100819.72
2022-11-14T13:25:24.007Z,100828.53
2022-11-14T13:28:44.001Z,100826.06
2022-11-14T13:31:35.418Z,100826.47
2022-11-14T13:34:29.552Z,100824.91
2022-11-14T13:37:45.800Z,100833.63
2022-11-14T13:40:37.243Z,100825.22
2022-11-14T13:43:44.273Z,100826.44
2022-11-14T13:46:36.200Z,100829.22
2022-11-14T13:49:52.656Z,100826.69
2022-11-14T13:52:44.895Z,100822.63
2022-11-14T13:55:52.234Z,100832.47
2022-11-14T13:58:58.833Z,100817.88
2022-11-14T14:01:52.088Z,100826.50
2022-11-14T14:04:46.403Z,100822.41
2022-11-14T14:07:49.696Z,100820.88
2022-11-14T14:10:53.378Z,100825.09
2022-11-14T14:14:19.746Z,100826.16
2022-11-14T14:17:22.780Z,100825.44
2022-11-14T14:20:44.692Z,100831.66
2022-11-14T14:23:35.615Z,100825.69
2022-11-14T14:26:32.500Z,100829.97
2022-11-14T14:30:02.406Z,100824.06
2022-11-14T14:33:07.597Z,100837.00
2022-11-14T14:35:54.571Z,100828.56
2022-11-14T14:38:40.458Z,100832.13
2022-11-14T14:41:31.174Z,100767.50
2022-11-14T14:44:24.501Z,100831.44
2022-11-14T14:47:17.276Z,100805.91
2022-11-14T14:50:06.456Z,100819.44
2022-11-14T14:53:00.205Z,100820.28
2022-11-14T14:56:01.722Z,100822.06
2022-11-14T14:58:47.837Z,100827.22
2022-11-14T15:01:35.722Z,100826.41
2022-11-14T15:04:23.376Z,100804.28
2022-11-14T15:07:24.059Z,100793.06
2022-11-14T15:10:22.786Z,100794.41
2022-11-14T15:13:14.547Z,100811.50
2022-11-14T15:16:00.681Z,100815.34
2022-11-14T15:18:48.215Z,100817.63
2022-11-14T15:21:33.757Z,100820.78
2022-11-14T15:24:22.235Z,100822.13
2022-11-14T15:27:16.907Z,100815.19
2022-11-14T15:30:06.967Z,100814.06
2022-11-14T15:32:54.983Z,100809.69
2022-11-14T15:35:41.299Z,100810.34
2022-11-14T15:38:44.355Z,100803.25
2022-11-14T15:41:32.456Z,100785.50
2022-11-14T15:44:33.069Z,100808.06
2022-11-14T15:47:25.172Z,100802.72
2022-11-14T15:50:13.362Z,100804.25
2022-11-14T15:53:04.125Z,100799.63
2022-11-14T15:55:50.249Z,100804.97
2022-11-14T15:58:36.025Z,100790.81
2022-11-14T16:01:26.189Z,100797.59
2022-11-14T16:04:18.843Z,100806.94
2022-11-14T16:07:05.090Z,100800.03
2022-11-14T16:09:51.058Z,100801.75
2022-11-14T16:12:36.356Z,100804.06
2022-11-14T16:15:22.465Z,100810.84
2022-11-14T16:18:08.301Z,100803.03
2022-11-14T16:20:58.888Z,100787.97
2022-11-14T16:23:44.188Z,100814.34
2022-11-14T16:26:30.445Z,100806.38
2022-11-14T16:29:16.535Z,100801.50
2022-11-14T16:32:03.711Z,100797.81
2022-11-14T16:34:49.238Z,100801.16
2022-11-14T16:37:34.538Z,100793.56
2022-11-14T16:40:23.227Z,100747.53
2022-11-14T16:43:13.320Z,100799.72
2022-11-14T16:46:03.633Z,100797.19
2022-11-14T16:48:49.692Z,100797.06
2022-11-14T16:51:51.106Z,100790.13
2022-11-14T16:54:37.099Z,100795.44
2022-11-14T16:57:22.655Z,100791.75
2022-11-14T17:00:12.520Z,100778.19
2022-11-14T17:02:58.246Z,100791.69
2022-11-14T17:05:51.750Z,100778.72
2022-11-14T17:08:37.650Z,100775.13
2022-11-14T17:11:24.092Z,100780.78
2022-11-14T17:14:28.336Z,100784.22
2022-11-14T17:17:14.091Z,100766.56
2022-11-14T17:20:00.180Z,100777.03
2022-11-14T17:22:45.998Z,100754.63
2022-11-14T17:25:31.692Z,100769.97
2022-11-14T17:28:17.304Z,100762.38
2022-11-14T17:31:11.552Z,100763.13
2022-11-14T17:33:58.917Z,100763.22
2022-11-14T17:36:44.730Z,100764.19
2022-11-14T17:39:30.490Z,100762.38
2022-11-14T17:42:16.016Z,100767.25
2022-11-14T17:45:02.058Z,100752.53
2022-11-14T17:47:47.691Z,100757.75
2022-11-14T17:50:37.425Z,100765.50
2022-11-14T17:53:23.104Z,100756.72
2022-11-14T17:56:13.385Z,100752.16
2022-11-14T17:58:59.223Z,100757.34
2022-11-14T18:01:44.990Z,100761.47
2022-11-14T18:04:31.928Z,100758.81
2022-11-14T18:07:17.638Z,100755.53
2022-11-14T18:10:03.550Z,100762.28
2022-11-14T18:12:49.022Z,100753.78
2022-11-14T18:15:35.211Z,100752.09
2022-11-14T18:18:20.529Z,100749.78
2022-11-14T18:21:13.040Z,100753.78
2022-11-14T18:24:00.157Z,100752.81
2022-11-14T18:26:45.849Z,100751.19
2022-11-14T18:29:31.242Z,100754.59
2022-11-14T18:32:17.089Z,100765.66
2022-11-14T18:35:02.539Z,100765.81
2022-11-14T18:37:48.487Z,100762.72
2022-11-14T18:40:34.004Z,100705.50
2022-11-14T18:43:19.308Z,100758.59
2022-11-14T18:46:10.135Z,100751.56
2022-11-14T18:48:57.454Z,100754.88
2022-11-14T18:51:43.117Z,100752.66
2022-11-14T18:54:28.856Z,100745.97
2022-11-14T18:57:14.834Z,100743.25
2022-11-14T19:00:00.391Z,100752.53
2022-11-14T19:02:55.012Z,100750.06
2022-11-14T19:05:40.571Z,100742.56
2022-11-14T19:08:26.390Z,100747.06
2022-11-14T19:11:33.221Z,100697.56
2022-11-14T19:14:20.133Z,100736.06
2022-11-14T19:17:07.282Z,100745.16
2022-11-14T19:19:56.041Z,100700.75
2022-11-14T19:22:41.211Z,100730.00
2022-11-14T19:25:27.091Z,100726.97
2022-11-14T19:28:13.019Z,100727.97
2022-11-14T19:31:06.042Z,100720.50
2022-11-14T19:33:51.328Z,100720.50
2022-11-14T19:39:42.849Z,100719.88
2022-11-14T19:42:28.792Z,100681.16
2022-11-14T19:45:14.260Z,100722.47
2022-11-14T19:47:59.955Z,100712.06
2022-11-14T19:50:45.653Z,100713.66
2022-11-14T19:53:34.291Z,100682.81
2022-11-14T19:56:20.980Z,100717.91
2022-11-14T19:59:13.807Z,100714.25
2022-11-14T20:02:00.336Z,100706.78
2022-11-14T20:04:46.920Z,100711.41
2022-11-14T20:07:35.481Z,100652.84
2022-11-14T20:10:21.245Z,100714.84
2022-11-14T20:13:07.096Z,100714.31
2022-11-14T20:15:52.479Z,100717.03
2022-11-14T20:18:37.919Z,100693.72
2022-11-14T20:21:25.285Z,100702.78
2022-11-14T20:24:12.866Z,100697.63
2022-11-14T20:26:58.345Z,100714.44
2022-11-14T20:29:43.753Z,100716.63
2022-11-14T20:32:30.814Z,100711.06
2022-11-14T20:35:16.327Z,100701.75
2022-11-14T20:38:04.644Z,100714.59
2022-11-14T20:40:55.322Z,100706.84
2022-11-14T20:43:41.294Z,100693.22
2022-11-14T20:46:26.830Z,100700.00
2022-11-14T20:49:12.390Z,100696.59
2022-11-14T20:51:57.448Z,100691.50
2022-11-14T20:54:43.225Z,100685.47
2022-11-14T20:57:30.394Z,100697.06
2022-11-14T21:00:16.206Z,100695.03
2022-11-14T21:03:02.081Z,100692.38
2022-11-14T21:05:47.886Z,100699.03
2022-11-14T21:08:35.823Z,100687.78
2022-11-14T21:11:22.535Z,100692.78
2022-11-14T21:14:09.230Z,100699.50
2022-11-14T21:16:54.717Z,100689.31
2022-11-14T21:19:40.510Z,100698.38
2022-11-14T21:22:26.212Z,100697.41
2022-11-14T21:25:11.703Z,100698.28
2022-11-14T21:27:57.447Z,100696.56
2022-11-14T21:30:42.716Z,100696.09
2022-11-14T21:33:30.647Z,100698.69
2022-11-14T21:39:23.878Z,100687.09
2022-11-14T21:42:11.883Z,100684.44
2022-11-14T21:44:59.700Z,100682.00
2022-11-14T21:47:45.264Z,100683.59
2022-11-14T21:50:32.885Z,100681.09
2022-11-14T21:53:18.875Z,100679.56
2022-11-14T21:56:19.649Z,100685.13
2022-11-14T21:59:13.236Z,100673.09
2022-11-14T22:02:18.032Z,100671.19
2022-11-14T22:05:03.733Z,100663.72
2022-11-14T22:07:49.187Z,100667.06
2022-11-14T22:10:34.943Z,100664.47
2022-11-14T22:13:20.763Z,100665.47
2022-11-14T22:16:08.006Z,100663.66
2022-11-14T22:18:53.771Z,100654.56
2022-11-14T22:21:39.938Z,100655.38
2022-11-14T22:24:25.580Z,100661.28
2022-11-14T22:27:11.101Z,100658.63
2022-11-14T22:29:56.565Z,100645.94
2022-11-14T22:32:42.391Z,100649.06
2022-11-14T22:35:28.182Z,100644.75
2022-11-14T22:38:13.303Z,100654.16
2022-11-14T22:40:59.585Z,100651.56
2022-11-14T22:43:45.852Z,100648.16
2022-11-14T22:46:31.468Z,100649.13
2022-11-14T22:49:21.118Z,100635.91
2022-11-14T22:52:06.913Z,100645.78
2022-11-14T22:54:52.695Z,100645.66
2022-11-14T22:57:39.442Z,100643.28
2022-11-14T23:00:24.864Z,100649.13
2022-11-14T23:03:10.484Z,100638.13
2022-11-14T23:05:56.238Z,100641.25
2022-11-14T23:08:42.055Z,100633.72
2022-11-14T23:11:30.323Z,100624.41
2022-11-14T23:14:15.901Z,100633.78
2022-11-14T23:17:01.501Z,100632.97
2022-11-14T23:19:46.770Z,100632.97
2022-11-14T23:22:32.116Z,100635.91
2022-11-14T23:25:17.795Z,100629.50
2022-11-14T23:28:03.464Z,100620.75
2022-11-14T23:30:48.835Z,100620.69
2022-11-14T23:33:35.099Z,100588.69
2022-11-14T23:36:21.450Z,100617.34
2022-11-14T23:39:07.042Z,100609.53
2022-11-14T23:41:52.600Z,100607.84
2022-11-14T23:44:38.233Z,100605.34
2022-11-14T23:47:23.574Z,100610.09
2022-11-14T23:50:10.136Z,100596.16
2022-11-14T23:52:55.248Z,100594.47
2022-11-14T23:55:42.123Z,100591.28
2022-11-14T23:58:28.579Z,100595.50
